Time;durP1;ratioP1;P1;durP2;ratioP2;P2;SDS_P1;SDS_P2;PMS_P1;PMS_P2;Temp;Humidity;BMP_temperature;BMP_pressure;BME280_temperature;BME280_humidity;BME280_pressure;Samples;Min_cycle;Max_cycle;Signal;HPM_P1;HPM_P2
2022/03/15 00:02:01;;;;;;;3.50;0.60;;;7.20;99.90;;;;;;5010887;28;20773;-73
2022/03/15 00:04:27;;;;;;;0.40;0.20;;;7.00;99.90;;;;;;5011006;28;20423;-73
2022/03/15 00:06:53;;;;;;;0.40;0.30;;;7.00;99.90;;;;;;5010473;28;20807;-73
2022/03/15 00:09:18;;;;;;;0.40;0.30;;;7.00;99.90;;;;;;5011065;28;20425;-74
2022/03/15 00:11:44;;;;;;;0.40;0.20;;;7.00;99.90;;;;;;5010310;28;20741;-74
2022/03/15 00:14:14;;;;;;;1.20;1.10;;;6.90;99.90;;;;;;5010252;28;20400;-72
2022/03/15 00:16:41;;;;;;;0.40;0.30;;;6.80;99.90;;;;;;5011265;28;20484;-74
2022/03/15 00:19:06;;;;;;;0.40;0.20;;;6.80;99.90;;;;;;5010103;28;20381;-73
2022/03/15 00:21:32;;;;;;;0.40;0.30;;;6.90;99.90;;;;;;5011346;28;20480;-73
2022/03/15 00:23:59;;;;;;;0.40;0.20;;;6.80;99.90;;;;;;5010219;28;20416;-74
2022/03/15 00:26:28;;;;;;;0.40;0.30;;;6.80;99.90;;;;;;5011154;28;20388;-74
2022/03/15 00:28:53;;;;;;;0.40;0.20;;;6.80;99.90;;;;;;5010635;28;20381;-73
2022/03/15 00:31:19;;;;;;;0.40;0.30;;;6.80;99.90;;;;;;5010931;28;20377;-73
2022/03/15 00:33:45;;;;;;;0.40;0.20;;;6.70;99.90;;;;;;5010978;28;20393;-74
2022/03/15 00:36:12;;;;;;;0.40;0.20;;;6.80;99.90;;;;;;5009836;28;20405;-74
2022/03/15 00:38:41;;;;;;;0.40;0.20;;;6.90;99.90;;;;;;5010848;28;20714;-72
2022/03/15 00:41:08;;;;;;;3.30;0.80;;;6.90;99.90;;;;;;5009898;28;20403;-72
2022/03/15 00:43:33;;;;;;;0.40;0.20;;;6.90;99.90;;;;;;5010717;28;20411;-71
2022/03/15 00:46:00;;;;;;;0.40;0.30;;;7.10;99.90;;;;;;5009881;28;20380;-72
2022/03/15 00:48:26;;;;;;;0.40;0.20;;;7.10;99.90;;;;;;5010679;28;20377;-72
2022/03/15 00:50:52;;;;;;;0.40;0.25;;;7.00;99.90;;;;;;5010876;28;20381;-72
2022/03/15 00:53:18;;;;;;;0.40;0.20;;;7.10;99.90;;;;;;5010364;28;20906;-72
2022/03/15 00:55:44;;;;;;;0.40;0.30;;;6.90;99.90;;;;;;5011044;28;20400;-72
2022/03/15 00:58:10;;;;;;;0.40;0.20;;;7.00;99.90;;;;;;5009801;28;20978;-71
2022/03/15 01:00:37;;;;;;;0.47;0.47;;;7.20;99.90;;;;;;5010630;28;20439;-71
2022/03/15 01:03:05;;;;;;;0.40;0.20;;;7.20;99.90;;;;;;5010246;28;20392;-72
2022/03/15 01:05:31;;;;;;;0.40;0.20;;;7.10;99.90;;;;;;5010833;28;20385;-72
2022/03/15 01:07:57;;;;;;;0.40;0.20;;;7.00;99.90;;;;;;5009839;28;20440;-71
2022/03/15 01:10:23;;;;;;;1.80;0.70;;;7.00;99.90;;;;;;4996817;28;20906;-72
2022/03/15 01:12:49;;;;;;;0.40;0.20;;;7.00;99.90;;;;;;4990869;28;20442;-72
2022/03/15 01:15:15;;;;;;;0.40;0.28;;;7.10;99.90;;;;;;4990564;28;20831;-71
2022/03/15 01:17:41;;;;;;;0.40;0.20;;;7.10;99.90;;;;;;4991319;28;20780;-72
2022/03/15 01:20:08;;;;;;;0.40;0.20;;;7.20;99.90;;;;;;4990633;28;20382;-72
2022/03/15 01:22:34;;;;;;;0.40;0.20;;;7.10;99.90;;;;;;4990794;28;20397;-72
2022/03/15 01:25:00;;;;;;;0.93;0.35;;;7.00;99.90;;;;;;4990459;28;20418;-72
2022/03/15 01:27:25;;;;;;;0.40;0.20;;;7.10;99.90;;;;;;4991039;28;20390;-72
2022/03/15 01:29:51;;;;;;;0.40;0.30;;;7.20;99.90;;;;;;4990995;28;20385;-72
2022/03/15 01:32:18;;;;;;;0.40;0.20;;;7.10;99.90;;;;;;4989751;28;20401;-72
2022/03/15 01:34:43;;;;;;;0.40;0.30;;;7.20;99.90;;;;;;4990898;28;20731;-72
2022/03/15 01:37:09;;;;;;;0.40;0.20;;;7.30;99.90;;;;;;4989730;28;20375;-72
2022/03/15 01:39:36;;;;;;;0.50;0.50;;;7.30;99.90;;;;;;4990314;28;20395;-72
2022/03/15 01:42:03;;;;;;;0.40;0.20;;;7.30;99.90;;;;;;4989852;28;20393;-72
2022/03/15 01:44:32;;;;;;;0.40;0.20;;;7.40;99.90;;;;;;4990641;28;20417;-72
2022/03/15 01:46:59;;;;;;;0.40;0.20;;;7.30;99.90;;;;;;4988937;28;20794;-72
2022/03/15 01:49:25;;;;;;;0.40;0.20;;;7.40;99.90;;;;;;4992041;28;20415;-72
2022/03/15 01:51:51;;;;;;;0.40;0.20;;;7.30;99.90;;;;;;4994304;28;20378;-72
2022/03/15 01:54:20;;;;;;;0.40;0.20;;;7.60;99.90;;;;;;4993502;28;20421;-72
2022/03/15 01:56:46;;;;;;;0.47;0.40;;;7.50;99.90;;;;;;4992927;28;20449;-72
2022/03/15 01:59:13;;;;;;;0.40;0.20;;;7.40;99.90;;;;;;4993433;28;20391;-72
2022/03/15 02:01:41;;;;;;;0.40;0.20;;;7.40;99.90;;;;;;4994229;28;20716;-72
2022/03/15 02:04:07;;;;;;;0.40;0.20;;;7.40;99.90;;;;;;4993111;28;20484;-72
2022/03/15 02:06:37;;;;;;;0.40;0.22;;;7.50;99.90;;;;;;4994266;28;20425;-72
2022/03/15 02:09:10;;;;;;;0.40;0.20;;;7.40;99.90;;;;;;4995986;28;20436;-72
2022/03/15 02:11:36;;;;;;;0.40;0.20;;;7.40;99.90;;;;;;5013898;28;20396;-72
2022/03/15 02:14:04;;;;;;;0.40;0.20;;;7.30;99.90;;;;;;5012615;28;20393;-72
2022/03/15 02:16:31;;;;;;;0.40;0.20;;;7.40;99.90;;;;;;5013442;28;20384;-72
2022/03/15 02:18:58;;;;;;;0.40;0.20;;;7.50;99.90;;;;;;5013404;28;20399;-72
2022/03/15 02:21:25;;;;;;;0.40;0.30;;;7.40;99.90;;;;;;5012824;28;20385;-72
2022/03/15 02:23:51;;;;;;;0.40;0.30;;;7.60;99.90;;;;;;5013070;28;20925;-72
2022/03/15 02:26:16;;;;;;;0.40;0.20;;;7.70;99.90;;;;;;5012528;28;20421;-72
2022/03/15 02:28:43;;;;;;;0.40;0.20;;;7.50;99.90;;;;;;5013299;28;20385;-73
2022/03/15 02:31:09;;;;;;;0.40;0.20;;;7.50;99.90;;;;;;5012317;28;20481;-72
2022/03/15 02:33:35;;;;;;;0.40;0.20;;;7.50;99.90;;;;;;5012966;28;20695;-72
2022/03/15 02:36:01;;;;;;;0.40;0.20;;;7.50;99.90;;;;;;5011295;28;20404;-72
2022/03/15 02:38:27;;;;;;;0.40;0.20;;;7.70;99.90;;;;;;5011520;28;21019;-72
2022/03/15 02:40:53;;;;;;;0.40;0.20;;;7.70;99.90;;;;;;5012940;28;20420;-72
2022/03/15 02:43:19;;;;;;;0.40;0.20;;;7.40;99.90;;;;;;5010136;28;21243;-72
2022/03/15 02:45:44;;;;;;;0.40;0.20;;;7.40;99.90;;;;;;5012637;28;20385;-72
2022/03/15 02:48:10;;;;;;;0.40;0.20;;;7.50;99.90;;;;;;5012212;28;20714;-73
2022/03/15 02:50:36;;;;;;;0.40;0.20;;;7.50;99.90;;;;;;5011253;28;20393;-73
2022/03/15 02:53:02;;;;;;;0.40;0.20;;;7.60;99.90;;;;;;5012442;28;20796;-73
2022/03/15 02:55:32;;;;;;;0.40;0.30;;;7.60;99.90;;;;;;5011291;28;20396;-73
2022/03/15 02:57:59;;;;;;;0.40;0.20;;;7.60;99.90;;;;;;5012837;28;20439;-73
2022/03/15 03:00:27;;;;;;;0.40;0.20;;;7.60;99.90;;;;;;5011570;28;20380;-72
2022/03/15 03:02:53;;;;;;;0.40;0.20;;;7.60;99.90;;;;;;5012788;28;20385;-72
2022/03/15 03:05:19;;;;;;;0.40;0.20;;;7.60;99.90;;;;;;5011826;28;20385;-73
2022/03/15 03:07:45;;;;;;;0.40;0.20;;;7.40;99.90;;;;;;5012721;28;20477;-72
2022/03/15 03:10:12;;;;;;;0.60;0.50;;;7.40;99.90;;;;;;4999469;28;20410;-72
2022/03/15 03:12:41;;;;;;;3.60;0.70;;;7.50;99.90;;;;;;4992901;28;20386;-73
2022/03/15 03:15:11;;;;;;;0.40;0.30;;;7.40;99.90;;;;;;4992027;28;20863;-73
2022/03/15 03:17:40;;;;;;;0.40;0.20;;;7.60;99.90;;;;;;4993040;28;20501;-73
2022/03/15 03:20:09;;;;;;;0.40;0.40;;;7.50;99.90;;;;;;4991812;28;20387;-72
2022/03/15 03:22:36;;;;;;;0.40;0.20;;;7.40;99.90;;;;;;4992037;28;20394;-73
2022/03/15 03:25:06;;;;;;;0.40;0.30;;;7.60;99.90;;;;;;4992339;28;20419;-72
2022/03/15 03:27:32;;;;;;;0.40;0.20;;;7.60;99.90;;;;;;4992569;28;20453;-74
2022/03/15 03:29:58;;;;;;;0.40;0.30;;;7.60;99.90;;;;;;4992457;28;20391;-74
2022/03/15 03:32:25;;;;;;;0.40;0.20;;;7.60;99.90;;;;;;4991817;28;20398;-73
2022/03/15 03:34:54;;;;;;;0.40;0.38;;;7.80;99.90;;;;;;4992371;28;20799;-73
2022/03/15 03:37:21;;;;;;;0.40;0.30;;;7.80;99.90;;;;;;4991495;28;20795;-72
2022/03/15 03:39:47;;;;;;;0.40;0.20;;;7.80;99.90;;;;;;4992568;28;20448;-72
2022/03/15 03:42:13;;;;;;;0.40;0.30;;;7.70;99.90;;;;;;4990674;28;20409;-71
2022/03/15 03:44:42;;;;;;;0.40;0.30;;;7.70;99.90;;;;;;4992430;28;20442;-72
2022/03/15 03:47:08;;;;;;;0.50;0.50;;;7.60;99.90;;;;;;4990672;28;20402;-72
2022/03/15 03:49:34;;;;;;;0.40;0.20;;;7.50;99.90;;;;;;4991784;28;20382;-72
2022/03/15 03:52:00;;;;;;;0.40;0.30;;;7.50;99.90;;;;;;5000614;28;20757;-72
2022/03/15 03:54:26;;;;;;;0.40;0.20;;;7.40;99.90;;;;;;5010998;28;20377;-72
2022/03/15 03:56:52;;;;;;;0.40;0.30;;;7.40;99.90;;;;;;5011610;28;20381;-72
2022/03/15 03:59:18;;;;;;;0.40;0.20;;;7.40;99.90;;;;;;5011181;28;20385;-72
2022/03/15 04:01:44;;;;;;;0.40;0.20;;;7.40;99.90;;;;;;5011322;28;20391;-72
2022/03/15 04:04:10;;;;;;;0.40;0.20;;;7.40;99.90;;;;;;5010502;28;20456;-72
2022/03/15 04:06:40;;;;;;;0.40;0.20;;;7.30;99.90;;;;;;5011479;28;20411;-72
2022/03/15 04:09:06;;;;;;;0.40;0.20;;;7.20;99.90;;;;;;5011042;28;20408;-72
2022/03/15 04:11:32;;;;;;;0.40;0.30;;;7.20;99.90;;;;;;5010175;28;20463;-72
2022/03/15 04:14:03;;;;;;;0.40;0.30;;;7.40;99.90;;;;;;5011444;28;20829;-72
2022/03/15 04:16:29;;;;;;;0.40;0.20;;;7.40;99.90;;;;;;5010568;28;20389;-72
2022/03/15 04:18:55;;;;;;;0.40;0.23;;;7.30;99.90;;;;;;5011161;28;20758;-72
2022/03/15 04:21:24;;;;;;;0.40;0.30;;;7.40;99.90;;;;;;5010670;28;20385;-72
2022/03/15 04:23:55;;;;;;;0.40;0.20;;;7.50;99.90;;;;;;5010814;28;20913;-73
2022/03/15 04:26:22;;;;;;;0.40;0.20;;;7.50;99.90;;;;;;5010033;28;20519;-72
2022/03/15 04:28:47;;;;;;;0.40;0.28;;;7.50;99.90;;;;;;5010880;28;20479;-72
2022/03/15 04:31:14;;;;;;;0.40;0.20;;;7.60;99.90;;;;;;5010402;28;20930;-72
2022/03/15 04:33:40;;;;;;;0.40;0.30;;;7.50;99.90;;;;;;5011032;28;20766;-73
2022/03/15 04:36:06;;;;;;;0.40;0.20;;;7.50;99.90;;;;;;5010125;28;20389;-72
2022/03/15 04:38:32;;;;;;;0.40;0.30;;;7.50;99.90;;;;;;5010973;28;20881;-72
2022/03/15 04:40:58;;;;;;;5.70;0.80;;;7.40;99.90;;;;;;5011342;28;20467;-72
2022/03/15 04:43:24;;;;;;;0.40;0.20;;;7.30;99.90;;;;;;5010249;28;20451;-72
2022/03/15 04:45:50;;;;;;;0.40;0.40;;;7.30;99.90;;;;;;5011228;28;20381;-72
2022/03/15 04:48:18;;;;;;;0.40;0.20;;;7.20;99.90;;;;;;5010484;28;20393;-72
2022/03/15 04:50:44;;;;;;;0.40;0.20;;;7.10;99.90;;;;;;5011135;28;20781;-72
2022/03/15 04:53:10;;;;;;;0.40;0.20;;;7.20;99.90;;;;;;5010523;28;20488;-72
2022/03/15 04:55:36;;;;;;;0.40;0.40;;;7.10;99.90;;;;;;5011064;28;20496;-72
2022/03/15 04:58:01;;;;;;;0.40;0.20;;;7.20;99.90;;;;;;5010807;28;20384;-72
2022/03/15 05:00:27;;;;;;;0.40;0.20;;;7.10;99.90;;;;;;5010296;28;20381;-72
2022/03/15 05:02:53;;;;;;;0.40;0.30;;;7.10;99.90;;;;;;5010827;28;20515;-72
2022/03/15 05:05:18;;;;;;;0.40;0.40;;;7.10;99.90;;;;;;5010232;28;20427;-72
2022/03/15 05:07:44;;;;;;;0.40;0.20;;;7.10;99.90;;;;;;5010377;28;20408;-72
2022/03/15 05:12:54;;;;;;;1.00;1.00;;;7.00;99.90;;;;;;5010651;28;20427;-72
2022/03/15 05:15:20;;;;;;;0.40;0.20;;;7.00;99.90;;;;;;5009689;28;20401;-72
2022/03/15 05:17:46;;;;;;;0.40;0.20;;;6.80;99.90;;;;;;5010890;28;20715;-72
2022/03/15 05:20:14;;;;;;;0.50;0.50;;;6.80;99.90;;;;;;5010275;28;20377;-72
2022/03/15 05:22:40;;;;;;;0.40;0.20;;;6.90;99.90;;;;;;5012073;28;20400;-72
2022/03/15 05:25:06;;;;;;;0.40;0.20;;;7.00;99.90;;;;;;5014668;28;20425;-72
2022/03/15 05:27:33;;;;;;;0.40;0.20;;;6.90;99.90;;;;;;5013856;28;20541;-72
2022/03/15 05:30:00;;;;;;;0.40;0.20;;;6.80;99.90;;;;;;5014786;28;20393;-72
2022/03/15 05:32:26;;;;;;;0.40;0.20;;;6.80;99.90;;;;;;5013710;28;20388;-72
2022/03/15 05:34:52;;;;;;;0.60;0.60;;;7.00;99.90;;;;;;5014364;28;20391;-72
2022/03/15 05:37:18;;;;;;;0.40;0.20;;;6.90;99.90;;;;;;5010964;28;20408;-74
2022/03/15 05:39:44;;;;;;;0.40;0.30;;;6.90;99.90;;;;;;5011952;28;20418;-72
2022/03/15 05:42:12;;;;;;;0.40;0.30;;;6.80;99.90;;;;;;5013962;28;20896;-72
2022/03/15 05:44:38;;;;;;;0.40;0.20;;;6.90;99.90;;;;;;5014096;28;20499;-73
2022/03/15 05:47:04;;;;;;;0.40;0.20;;;6.90;99.90;;;;;;5010992;28;20407;-73
2022/03/15 05:49:30;;;;;;;0.40;0.20;;;6.90;99.90;;;;;;5013199;28;20381;-73
2022/03/15 05:51:56;;;;;;;0.40;0.20;;;7.00;99.90;;;;;;5014228;28;20389;-73
2022/03/15 05:54:21;;;;;;;0.40;0.20;;;6.90;99.90;;;;;;5013326;28;20380;-73
2022/03/15 05:56:47;;;;;;;0.40;0.20;;;6.90;99.90;;;;;;5013739;28;20420;-73
2022/03/15 05:59:13;;;;;;;0.40;0.20;;;7.00;99.90;;;;;;5013524;28;20385;-73
2022/03/15 06:01:39;;;;;;;0.40;0.20;;;7.00;99.90;;;;;;5013959;28;20385;-73
2022/03/15 06:04:07;;;;;;;0.40;0.30;;;7.00;99.90;;;;;;5013797;28;20780;-72
2022/03/15 06:06:33;;;;;;;0.40;0.20;;;7.00;99.90;;;;;;5011873;28;20385;-73
2022/03/15 06:08:59;;;;;;;0.40;0.22;;;7.00;99.90;;;;;;5014064;28;20420;-73
2022/03/15 06:11:25;;;;;;;0.40;0.30;;;6.90;99.90;;;;;;5010745;28;20405;-73
2022/03/15 06:13:51;;;;;;;0.40;0.20;;;7.10;99.90;;;;;;5004091;28;20497;-73
2022/03/15 06:16:17;;;;;;;0.40;0.30;;;7.00;99.90;;;;;;5011239;28;20462;-72
2022/03/15 06:18:42;;;;;;;0.40;0.30;;;7.10;99.90;;;;;;5013789;28;20730;-73
2022/03/15 06:21:09;;;;;;;0.50;0.50;;;7.20;99.90;;;;;;5013982;28;20396;-73
2022/03/15 06:23:34;;;;;;;1.60;1.30;;;7.30;99.90;;;;;;5012796;28;20423;-72
2022/03/15 06:26:00;;;;;;;0.40;0.20;;;7.30;99.90;;;;;;5013666;28;20385;-73
2022/03/15 06:28:26;;;;;;;0.40;0.20;;;7.30;99.90;;;;;;5012851;28;20389;-73
2022/03/15 06:30:52;;;;;;;0.40;0.20;;;7.20;99.90;;;;;;5013381;28;20784;-73
2022/03/15 06:33:17;;;;;;;0.40;0.20;;;7.30;99.90;;;;;;5012033;28;20459;-73
2022/03/15 06:35:45;;;;;;;0.40;0.20;;;7.20;99.90;;;;;;5012492;28;20463;-73
2022/03/15 06:38:12;;;;;;;0.47;0.45;;;7.30;99.90;;;;;;5013045;28;20487;-74
2022/03/15 06:40:40;;;;;;;0.40;0.30;;;7.30;99.90;;;;;;5012815;28;20420;-74
2022/03/15 06:43:06;;;;;;;0.80;0.80;;;7.20;99.90;;;;;;5013157;28;20395;-75
2022/03/15 06:45:32;;;;;;;0.40;0.20;;;7.20;99.90;;;;;;5012653;28;21284;-75
2022/03/15 06:47:58;;;;;;;0.40;0.20;;;7.30;99.90;;;;;;5013211;28;20468;-74
2022/03/15 06:50:24;;;;;;;0.40;0.30;;;7.50;99.90;;;;;;5012291;28;20397;-74
2022/03/15 06:52:50;;;;;;;0.40;0.20;;;7.40;99.90;;;;;;5013065;28;20388;-74
2022/03/15 06:55:16;;;;;;;0.40;0.20;;;7.50;99.90;;;;;;5012929;28;20489;-74
2022/03/15 06:57:42;;;;;;;0.40;0.20;;;7.50;99.90;;;;;;5012455;28;20388;-74
2022/03/15 07:00:11;;;;;;;0.40;0.30;;;7.50;99.90;;;;;;5013105;28;20389;-74
2022/03/15 07:02:37;;;;;;;0.40;0.20;;;7.50;99.90;;;;;;5012167;28;20447;-74
2022/03/15 07:05:03;;;;;;;0.40;0.20;;;7.70;99.90;;;;;;5012292;28;20420;-74
2022/03/15 07:07:29;;;;;;;0.40;0.30;;;7.80;99.90;;;;;;5012079;28;20381;-74
2022/03/15 07:09:55;;;;;;;0.40;0.20;;;7.80;99.90;;;;;;5012363;28;20417;-74
2022/03/15 07:12:22;;;;;;;0.40;0.20;;;7.80;99.90;;;;;;5011859;28;20584;-74
2022/03/15 07:14:49;;;;;;;0.40;0.30;;;8.00;99.90;;;;;;5012303;28;20380;-74
2022/03/15 07:17:15;;;;;;;0.40;0.30;;;8.00;99.90;;;;;;5012582;28;20388;-74
2022/03/15 07:19:41;;;;;;;0.40;0.20;;;8.10;99.90;;;;;;5012105;28;20384;-74
2022/03/15 07:22:06;;;;;;;0.70;0.70;;;8.00;99.90;;;;;;5012552;28;20377;-74
2022/03/15 07:24:36;;;;;;;0.40;0.20;;;8.10;99.90;;;;;;5011603;28;20413;-75
2022/03/15 07:27:03;;;;;;;0.40;0.20;;;8.00;99.90;;;;;;5012544;28;20738;-73
2022/03/15 07:29:28;;;;;;;0.40;0.30;;;8.00;99.90;;;;;;5011538;28;20470;-74
2022/03/15 07:31:55;;;;;;;0.40;0.20;;;8.00;99.90;;;;;;5012393;28;20881;-73
2022/03/15 07:34:21;;;;;;;0.40;0.30;;;8.00;99.90;;;;;;5011443;28;20722;-73
2022/03/15 07:36:47;;;;;;;0.40;0.32;;;8.10;99.90;;;;;;5012410;28;20377;-73
2022/03/15 07:39:13;;;;;;;0.40;0.20;;;8.20;99.90;;;;;;5012430;28;20401;-73
2022/03/15 07:41:39;;;;;;;0.40;0.20;;;8.20;99.90;;;;;;5011357;28;21080;-73
2022/03/15 07:44:09;;;;;;;0.85;0.85;;;8.20;99.90;;;;;;5011825;28;20408;-73
2022/03/15 07:46:36;;;;;;;0.40;0.20;;;8.20;99.90;;;;;;5010084;28;20722;-72
2022/03/15 07:49:03;;;;;;;0.40;0.20;;;8.30;99.90;;;;;;5011942;28;20443;-73
2022/03/15 07:51:30;;;;;;;0.40;0.20;;;8.30;99.90;;;;;;5011357;28;20381;-73
2022/03/15 07:53:56;;;;;;;0.63;0.57;;;8.40;99.90;;;;;;5011742;28;20376;-73
2022/03/15 07:56:22;;;;;;;0.40;0.20;;;8.50;99.90;;;;;;5011025;28;20913;-73
2022/03/15 07:58:48;;;;;;;0.40;0.35;;;8.60;99.90;;;;;;5011832;28;20373;-74
2022/03/15 08:01:14;;;;;;;0.40;0.30;;;8.70;99.90;;;;;;5011864;28;20911;-74
2022/03/15 08:03:40;;;;;;;0.40;0.30;;;8.60;99.90;;;;;;5010871;28;20469;-74
2022/03/15 08:06:06;;;;;;;0.40;0.30;;;8.70;99.90;;;;;;5011612;28;20900;-74
2022/03/15 08:08:31;;;;;;;1.00;1.00;;;8.80;99.90;;;;;;5010559;28;20455;-74
2022/03/15 08:10:57;;;;;;;0.40;0.20;;;8.70;99.90;;;;;;5011746;28;20393;-74
2022/03/15 08:13:23;;;;;;;0.40;0.20;;;8.80;99.90;;;;;;5010558;28;20385;-75
2022/03/15 08:15:49;;;;;;;0.40;0.20;;;8.80;99.90;;;;;;5011676;28;20376;-75
2022/03/15 08:18:15;;;;;;;0.40;0.30;;;9.00;99.90;;;;;;5011805;28;20409;-74
2022/03/15 08:20:41;;;;;;;0.40;0.20;;;9.20;99.90;;;;;;5010730;28;20380;-74
2022/03/15 08:23:12;;;;;;;0.40;0.40;;;9.30;99.90;;;;;;5011163;28;20872;-75
2022/03/15 08:25:38;;;;;;;0.60;0.60;;;9.40;99.90;;;;;;5010785;28;20384;-74
2022/03/15 08:28:04;;;;;;;0.40;0.30;;;9.50;99.90;;;;;;5011630;28;20401;-75
2022/03/15 08:30:30;;;;;;;0.40;0.20;;;9.50;99.90;;;;;;5010632;28;20723;-74
2022/03/15 08:32:56;;;;;;;0.40;0.20;;;9.70;99.90;;;;;;5011530;28;20399;-74
2022/03/15 08:35:22;;;;;;;1.70;1.60;;;9.80;99.90;;;;;;5010099;28;20397;-75
2022/03/15 08:37:53;;;;;;;0.40;0.40;;;9.90;99.90;;;;;;5011246;28;20389;-74
2022/03/15 08:40:20;;;;;;;0.40;0.20;;;10.00;99.90;;;;;;5011028;28;20889;-74
2022/03/15 08:42:46;;;;;;;0.50;0.50;;;9.70;99.90;;;;;;5010637;28;20483;-73
2022/03/15 08:45:12;;;;;;;0.40;0.20;;;9.80;99.90;;;;;;5010655;28;20495;-73
2022/03/15 08:47:39;;;;;;;0.40;0.20;;;9.90;99.90;;;;;;5010411;28;20385;-74
2022/03/15 08:50:06;;;;;;;0.40;0.20;;;9.90;99.90;;;;;;5011177;28;20392;-73
2022/03/15 08:52:33;;;;;;;0.40;0.20;;;9.80;99.90;;;;;;5010398;28;20388;-73
2022/03/15 08:54:59;;;;;;;0.40;0.20;;;9.90;99.90;;;;;;5011001;28;20443;-73
2022/03/15 08:57:25;;;;;;;0.40;0.20;;;9.70;99.90;;;;;;5009544;28;20442;-74
2022/03/15 08:59:51;;;;;;;0.40;0.32;;;9.60;99.90;;;;;;5010557;28;20877;-74
2022/03/15 09:02:18;;;;;;;0.50;0.50;;;9.50;99.90;;;;;;5011069;28;20381;-74
2022/03/15 09:04:44;;;;;;;0.40;0.20;;;9.30;99.90;;;;;;5009843;28;21022;-74
2022/03/15 09:07:10;;;;;;;0.50;0.50;;;9.50;99.90;;;;;;5010738;28;20419;-74
2022/03/15 09:09:37;;;;;;;1.60;1.50;;;9.50;99.90;;;;;;5009440;28;20419;-74
2022/03/15 09:12:03;;;;;;;0.40;0.30;;;9.40;99.90;;;;;;5010719;28;20385;-73
2022/03/15 09:14:30;;;;;;;0.40;0.30;;;9.40;99.90;;;;;;5010032;28;20486;-74
2022/03/15 09:16:57;;;;;;;0.40;0.20;;;9.40;99.90;;;;;;5010588;28;20392;-74
2022/03/15 09:19:22;;;;;;;0.40;0.30;;;9.40;99.90;;;;;;5010605;28;20392;-74
2022/03/15 09:21:48;;;;;;;0.40;0.30;;;9.60;99.90;;;;;;5010191;28;20384;-74
2022/03/15 09:24:15;;;;;;;0.40;0.40;;;9.60;99.90;;;;;;5010173;28;20404;-74
2022/03/15 09:26:43;;;;;;;0.40;0.22;;;9.60;99.90;;;;;;5009986;28;20381;-73
2022/03/15 09:29:12;;;;;;;0.60;0.50;;;9.70;99.90;;;;;;5010755;28;20385;-74
2022/03/15 09:31:39;;;;;;;0.40;0.30;;;9.60;99.90;;;;;;5010066;28;20850;-74
2022/03/15 09:34:05;;;;;;;0.40;0.20;;;9.60;99.90;;;;;;5010220;28;20432;-74
2022/03/15 09:36:31;;;;;;;0.40;0.20;;;10.00;99.90;;;;;;5009632;28;20464;-74
2022/03/15 09:38:57;;;;;;;0.40;0.30;;;9.70;99.90;;;;;;5010355;28;21023;-74
2022/03/15 09:41:27;;;;;;;0.60;0.60;;;9.80;99.90;;;;;;5010027;28;20409;-74
2022/03/15 09:43:55;;;;;;;0.40;0.20;;;9.90;99.90;;;;;;5010541;28;20502;-74
2022/03/15 09:46:22;;;;;;;0.40;0.30;;;9.70;99.90;;;;;;5010071;28;20393;-74
2022/03/15 09:48:54;;;;;;;0.40;0.20;;;9.90;99.90;;;;;;5009708;28;20397;-74
2022/03/15 09:51:21;;;;;;;1.00;1.00;;;10.10;99.90;;;;;;5010451;28;20472;-72
2022/03/15 09:53:48;;;;;;;0.70;0.70;;;10.10;99.90;;;;;;5009907;28;20389;-73
2022/03/15 09:56:17;;;;;;;0.40;0.20;;;9.80;99.90;;;;;;5010386;28;20393;-74
2022/03/15 09:58:43;;;;;;;0.40;0.30;;;9.80;99.90;;;;;;5009683;28;20384;-73
2022/03/15 10:01:16;;;;;;;0.50;0.50;;;9.90;99.90;;;;;;5010775;28;20397;-74
2022/03/15 10:03:42;;;;;;;0.40;0.20;;;9.80;99.90;;;;;;5009664;28;20424;-74
2022/03/15 10:06:08;;;;;;;0.40;0.20;;;10.00;99.90;;;;;;5010368;28;20380;-73
2022/03/15 10:08:34;;;;;;;0.40;0.20;;;9.80;99.90;;;;;;5009549;28;20400;-73
2022/03/15 10:11:00;;;;;;;0.82;0.82;;;9.70;99.90;;;;;;4993234;28;20403;-73
2022/03/15 10:13:27;;;;;;;0.40;0.27;;;9.70;99.90;;;;;;4993970;28;20433;-73
2022/03/15 10:15:59;;;;;;;0.40;0.22;;;9.70;99.90;;;;;;4993761;28;20469;-73
2022/03/15 10:18:26;;;;;;;0.40;0.30;;;9.50;99.90;;;;;;4993966;28;20395;-73
2022/03/15 10:20:52;;;;;;;0.40;0.30;;;9.60;99.90;;;;;;4993586;28;20453;-73
2022/03/15 10:23:19;;;;;;;0.40;0.20;;;9.60;99.90;;;;;;4994090;28;20382;-73
2022/03/15 10:25:53;;;;;;;0.40;0.30;;;9.70;99.90;;;;;;4993440;28;20414;-73
2022/03/15 10:28:20;;;;;;;0.40;0.20;;;9.60;99.90;;;;;;4994309;28;20382;-73
2022/03/15 10:30:47;;;;;;;0.40;0.20;;;9.60;99.90;;;;;;4993468;28;20394;-73
2022/03/15 10:33:15;;;;;;;0.40;0.20;;;9.70;99.90;;;;;;4994023;28;20735;-72
2022/03/15 10:35:43;;;;;;;0.40;0.30;;;9.60;99.90;;;;;;4993242;28;20501;-73
2022/03/15 10:38:10;;;;;;;0.40;0.20;;;9.60;99.90;;;;;;4994190;28;20402;-73
2022/03/15 10:40:47;;;;;;;0.40;0.30;;;9.60;99.90;;;;;;4993139;28;20395;-73
2022/03/15 10:43:21;;;;;;;1.00;0.70;;;9.50;99.90;;;;;;4993992;28;20421;-73
2022/03/15 10:45:56;;;;;;;0.40;0.20;;;9.50;99.90;;;;;;4993327;28;20391;-73
2022/03/15 10:48:29;;;;;;;0.40;0.20;;;9.50;99.90;;;;;;4994003;28;20383;-73
2022/03/15 10:50:54;;;;;;;0.40;0.30;;;9.40;99.90;;;;;;4993879;28;20497;-73
2022/03/15 10:53:23;;;;;;;0.40;0.30;;;9.20;99.90;;;;;;4993724;28;21051;-73
2022/03/15 10:55:49;;;;;;;0.40;0.20;;;9.40;99.90;;;;;;4992932;28;20837;-73
2022/03/15 10:58:22;;;;;;;0.40;0.30;;;9.20;99.90;;;;;;4993725;28;20478;-74
2022/03/15 11:00:53;;;;;;;0.47;0.38;;;9.20;99.90;;;;;;4992985;28;20578;-73
2022/03/15 11:03:25;;;;;;;0.40;0.20;;;9.30;99.90;;;;;;4993421;28;20431;-72
2022/03/15 11:05:57;;;;;;;0.40;0.30;;;9.30;99.90;;;;;;4992923;28;20387;-74
2022/03/15 11:08:22;;;;;;;0.40;0.20;;;9.20;99.90;;;;;;4993093;28;20398;-73
2022/03/15 11:10:53;;;;;;;0.40;0.40;;;9.10;99.90;;;;;;5009992;28;20602;-73
2022/03/15 11:13:26;;;;;;;0.40;0.30;;;9.10;99.90;;;;;;5011790;28;20758;-74
2022/03/15 11:15:55;;;;;;;0.40;0.20;;;9.10;99.90;;;;;;5012006;28;20988;-74
2022/03/15 11:18:25;;;;;;;0.40;0.30;;;9.10;99.90;;;;;;5012684;28;20424;-74
2022/03/15 11:20:52;;;;;;;0.40;0.30;;;9.00;99.90;;;;;;5011478;28;20388;-74
2022/03/15 11:23:22;;;;;;;0.40;0.32;;;9.10;99.90;;;;;;5012366;28;20393;-74
2022/03/15 11:25:55;;;;;;;0.40;0.30;;;9.10;99.90;;;;;;5011646;28;20419;-73
2022/03/15 11:28:28;;;;;;;0.40;0.20;;;9.00;99.90;;;;;;5012495;28;20757;-74
2022/03/15 11:30:55;;;;;;;0.40;0.30;;;9.10;99.90;;;;;;5011588;28;20520;-74
2022/03/15 11:33:22;;;;;;;0.40;0.30;;;9.10;99.90;;;;;;5012219;28;20472;-74
2022/03/15 11:35:48;;;;;;;0.40;0.20;;;9.10;99.90;;;;;;5011193;28;20440;-73
2022/03/15 11:38:14;;;;;;;0.40;0.30;;;9.10;99.90;;;;;;5012279;28;20432;-73
2022/03/15 11:44:13;;;;;;;0.40;0.20;;;9.00;99.90;;;;;;5011162;28;20471;-73
2022/03/15 11:46:54;;;;;;;0.40;0.20;;;9.10;99.90;;;;;;5011210;28;20463;-73
2022/03/15 11:49:32;;;;;;;0.40;0.20;;;9.00;99.90;;;;;;5011822;28;20377;-74
2022/03/15 11:52:07;;;;;;;1.00;0.90;;;9.00;99.90;;;;;;5011505;28;20384;-73
2022/03/15 11:54:52;;;;;;;1.60;0.73;;;9.20;99.90;;;;;;5011551;28;20388;-73
2022/03/15 11:57:31;;;;;;;0.40;0.30;;;9.20;99.90;;;;;;5011764;28;20471;-73
2022/03/15 11:59:57;;;;;;;0.40;0.20;;;9.20;99.90;;;;;;5011160;28;20454;-73
2022/03/15 12:02:40;;;;;;;0.90;0.70;;;9.10;99.90;;;;;;5011720;28;20467;-73
2022/03/15 12:05:17;;;;;;;0.60;0.60;;;9.20;99.90;;;;;;5011705;28;20420;-74
2022/03/15 12:07:46;;;;;;;0.40;0.30;;;9.20;99.90;;;;;;5010743;28;20396;-74
2022/03/15 12:10:27;;;;;;;0.40;0.20;;;9.20;99.90;;;;;;4999320;28;20485;-73
2022/03/15 12:13:03;;;;;;;0.40;0.20;;;9.20;99.90;;;;;;4991261;28;20415;-72
2022/03/15 12:15:42;;;;;;;0.40;0.30;;;9.30;99.90;;;;;;4992058;28;20398;-72
2022/03/15 12:18:27;;;;;;;0.40;0.20;;;9.40;99.90;;;;;;4992121;28;20890;-73
2022/03/15 12:21:02;;;;;;;0.40;0.28;;;9.30;99.90;;;;;;4991171;28;20474;-72
2022/03/15 12:23:39;;;;;;;0.40;0.20;;;9.20;99.90;;;;;;4990362;28;20401;-72
2022/03/15 12:26:14;;;;;;;1.40;1.23;;;9.20;99.90;;;;;;4991789;28;20735;-72
2022/03/15 12:28:40;;;;;;;0.40;0.20;;;9.20;99.90;;;;;;4991065;28;20437;-72
2022/03/15 12:31:08;;;;;;;0.40;0.20;;;9.20;99.90;;;;;;4991528;28;20469;-73
2022/03/15 12:33:35;;;;;;;0.40;0.20;;;9.20;99.90;;;;;;4990834;28;20387;-72
2022/03/15 12:36:07;;;;;;;0.40;0.20;;;9.20;99.90;;;;;;4991284;28;20394;-72
2022/03/15 12:38:39;;;;;;;0.60;0.60;;;9.30;99.90;;;;;;4991289;28;20409;-73
2022/03/15 12:41:06;;;;;;;0.60;0.60;;;9.20;99.90;;;;;;4991493;28;20387;-72
2022/03/15 12:43:32;;;;;;;0.40;0.30;;;9.20;99.90;;;;;;4991718;28;20846;-72
2022/03/15 12:46:06;;;;;;;0.40;0.20;;;9.30;99.90;;;;;;4990879;28;20386;-73
2022/03/15 12:48:34;;;;;;;0.40;0.30;;;9.40;99.90;;;;;;4991440;28;20410;-72
2022/03/15 12:51:01;;;;;;;0.40;0.40;;;9.40;99.90;;;;;;4991304;28;20469;-72
2022/03/15 12:53:39;;;;;;;0.80;0.80;;;9.50;99.90;;;;;;4991442;28;20457;-73
2022/03/15 12:56:06;;;;;;;0.40;0.30;;;9.50;99.90;;;;;;4991508;28;20379;-73
2022/03/15 12:58:32;;;;;;;0.40;0.20;;;9.50;99.90;;;;;;4990825;28;20398;-73
2022/03/15 13:00:58;;;;;;;0.60;0.60;;;9.50;99.90;;;;;;4990297;28;20914;-73
2022/03/15 13:03:24;;;;;;;1.10;1.00;;;9.60;99.90;;;;;;4991331;28;20394;-73
2022/03/15 13:05:52;;;;;;;6.90;1.60;;;9.60;99.90;;;;;;4990682;28;20406;-73